Time;durP1;ratioP1;P1;durP2;ratioP2;P2;SDS_P1;SDS_P2;PMS_P1;PMS_P2;Temp;Humidity;BMP_temperature;BMP_pressure;BME280_temperature;BME280_humidity;BME280_pressure;Samples;Min_cycle;Max_cycle;Signal;HPM_P1;HPM_P2
2022/05/23 00:01:50;;;;;;;5.80;3.55;;;25.70;80.20;;;;;;6217598;23;20284;-77
2022/05/23 00:04:16;;;;;;;6.00;3.85;;;25.70;80.00;;;;;;6218590;23;20010;-78
2022/05/23 00:06:42;;;;;;;4.95;3.80;;;25.80;79.70;;;;;;6245484;23;20003;-78
2022/05/23 00:09:09;;;;;;;5.45;4.18;;;25.80;79.50;;;;;;6245600;23;19996;-79
2022/05/23 00:11:35;;;;;;;5.47;4.72;;;25.70;79.70;;;;;;6245690;23;20342;-78
2022/05/23 00:14:01;;;;;;;6.25;5.07;;;25.70;80.20;;;;;;6245982;23;20000;-78
2022/05/23 00:16:36;;;;;;;10.68;9.07;;;25.60;80.70;;;;;;6244084;23;20362;-77
2022/05/23 00:19:03;;;;;;;12.20;7.80;;;25.30;81.80;;;;;;6219735;23;20000;-78
2022/05/23 00:21:29;;;;;;;6.93;5.13;;;25.10;82.80;;;;;;6244725;23;20541;-77
2022/05/23 00:23:54;;;;;;;4.93;4.40;;;25.00;82.60;;;;;;6245856;23;19996;-77
2022/05/23 00:26:21;;;;;;;10.45;5.63;;;25.10;82.60;;;;;;6235141;23;20047;-77
2022/05/23 00:28:48;;;;;;;9.00;7.15;;;25.10;82.30;;;;;;6245747;22;20000;-80
2022/05/23 00:31:15;;;;;;;6.93;4.57;;;25.10;82.40;;;;;;6245673;22;20028;-77
2022/05/23 00:36:27;;;;;;;5.35;4.25;;;25.10;81.70;;;;;;6245272;23;20101;-76
2022/05/23 00:38:55;;;;;;;6.25;5.22;;;25.20;81.40;;;;;;6244538;22;20004;-76
2022/05/23 00:44:19;;;;;;;6.13;4.93;;;25.20;80.90;;;;;;6244061;23;20014;-76
2022/05/23 00:46:53;;;;;;;5.15;4.40;;;25.20;80.70;;;;;;6245145;22;20000;-76
2022/05/23 00:49:26;;;;;;;6.47;5.00;;;25.20;81.00;;;;;;6244985;22;20000;-76
2022/05/23 00:51:52;;;;;;;6.63;5.72;;;25.20;81.30;;;;;;6245798;22;20024;-76
2022/05/23 00:54:20;;;;;;;7.55;5.70;;;25.10;81.50;;;;;;6244585;22;20000;-77
2022/05/23 00:56:50;;;;;;;6.45;5.85;;;25.10;81.70;;;;;;6243688;22;20011;-77
2022/05/23 00:59:21;;;;;;;7.03;4.80;;;25.00;81.90;;;;;;6245467;22;20007;-79
2022/05/23 01:01:47;;;;;;;7.03;5.47;;;25.00;81.70;;;;;;6245035;22;20007;-78
2022/05/23 01:04:13;;;;;;;5.57;4.70;;;25.10;81.70;;;;;;6245815;22;20000;-78
2022/05/23 01:06:39;;;;;;;6.03;4.82;;;25.10;81.10;;;;;;6244374;23;20000;-78
2022/05/23 01:09:05;;;;;;;6.90;5.00;;;25.10;81.00;;;;;;6245760;23;20026;-78
2022/05/23 01:11:30;;;;;;;7.68;6.57;;;25.20;80.80;;;;;;6245139;23;20039;-78
2022/05/23 01:13:56;;;;;;;10.10;7.07;;;25.10;81.10;;;;;;6245262;23;19996;-78
2022/05/23 01:16:24;;;;;;;5.55;4.90;;;25.00;81.40;;;;;;6244779;23;20000;-76
2022/05/23 01:18:50;;;;;;;7.07;5.13;;;24.90;81.40;;;;;;6244307;23;20019;-77
2022/05/23 01:21:52;;;;;;;5.38;4.50;;;25.00;81.00;;;;;;6244634;22;20008;-80
2022/05/23 01:24:27;;;;;;;6.05;4.35;;;25.10;80.90;;;;;;6197411;22;20399;-79
2022/05/23 01:26:55;;;;;;;6.85;4.93;;;25.10;80.90;;;;;;6244755;22;20048;-78
2022/05/23 01:29:21;;;;;;;5.95;5.10;;;25.10;80.80;;;;;;6245606;23;20000;-78
2022/05/23 01:31:47;;;;;;;7.30;5.63;;;25.20;80.70;;;;;;6244116;23;20011;-79
2022/05/23 01:34:13;;;;;;;9.25;6.68;;;25.10;81.20;;;;;;6245251;23;20001;-77
2022/05/23 01:36:38;;;;;;;7.32;5.30;;;25.00;81.70;;;;;;6217663;23;20122;-76
2022/05/23 01:39:04;;;;;;;14.52;7.93;;;24.90;82.00;;;;;;6245353;23;20011;-77
2022/05/23 01:41:30;;;;;;;5.75;4.95;;;24.80;82.60;;;;;;6217236;23;20015;-77
2022/05/23 01:43:56;;;;;;;7.68;6.95;;;24.70;82.90;;;;;;6245662;23;20003;-75
2022/05/23 01:46:21;;;;;;;9.50;7.28;;;24.60;83.10;;;;;;6244188;23;20034;-76
2022/05/23 01:48:47;;;;;;;10.30;9.23;;;24.70;83.10;;;;;;6244851;23;20027;-76
2022/05/23 01:51:13;;;;;;;7.50;6.03;;;24.60;83.10;;;;;;6244925;23;20050;-76
2022/05/23 01:53:39;;;;;;;12.20;8.57;;;24.60;83.10;;;;;;6245748;23;20310;-75
2022/05/23 01:56:06;;;;;;;8.23;7.18;;;24.60;83.30;;;;;;6247252;23;20004;-76
2022/05/23 02:01:17;;;;;;;12.07;10.88;;;24.40;83.80;;;;;;6247111;23;20015;-75
2022/05/23 02:03:44;;;;;;;15.30;13.18;;;24.20;85.00;;;;;;6247336;23;20007;-76
2022/05/23 02:06:11;;;;;;;11.77;9.68;;;24.10;85.70;;;;;;6246557;23;20438;-76
2022/05/23 02:08:37;;;;;;;7.30;6.38;;;24.00;86.10;;;;;;6247288;23;20055;-76
2022/05/23 02:11:06;;;;;;;8.70;7.13;;;24.10;85.10;;;;;;6220168;23;20054;-77
2022/05/23 02:13:40;;;;;;;8.07;6.75;;;24.30;85.10;;;;;;6246948;23;20072;-76
2022/05/23 02:16:06;;;;;;;8.38;6.68;;;24.40;84.10;;;;;;6219077;23;20008;-76
2022/05/23 02:18:32;;;;;;;7.57;6.72;;;24.50;83.90;;;;;;6246288;23;20042;-76
2022/05/23 02:20:58;;;;;;;8.55;7.47;;;24.60;84.30;;;;;;6245584;23;20004;-76
2022/05/23 02:23:24;;;;;;;11.77;10.57;;;24.50;84.30;;;;;;6246296;23;20000;-76
2022/05/23 02:25:51;;;;;;;16.75;13.75;;;24.50;85.20;;;;;;6246536;22;20020;-77
2022/05/23 02:28:18;;;;;;;9.30;8.13;;;24.40;85.60;;;;;;6247314;23;19996;-76
2022/05/23 02:30:45;;;;;;;10.07;8.90;;;24.40;84.70;;;;;;6245031;23;20004;-78
2022/05/23 02:33:11;;;;;;;12.63;9.27;;;24.50;85.00;;;;;;6246526;23;20000;-77
2022/05/23 02:35:37;;;;;;;10.15;9.15;;;24.50;85.30;;;;;;6246169;23;20113;-79
2022/05/23 02:38:03;;;;;;;8.93;7.95;;;24.40;85.70;;;;;;6246787;23;20007;-78
2022/05/23 02:40:28;;;;;;;9.70;8.15;;;24.50;85.30;;;;;;6246632;23;20008;-77
2022/05/23 02:42:54;;;;;;;9.32;7.55;;;24.50;84.90;;;;;;6247033;23;20456;-78
2022/05/23 02:45:20;;;;;;;10.02;8.98;;;24.50;85.00;;;;;;6245416;23;20024;-77
2022/05/23 02:47:45;;;;;;;10.25;8.73;;;24.60;84.80;;;;;;6246043;23;19996;-80
2022/05/23 02:50:12;;;;;;;10.13;9.13;;;24.60;84.60;;;;;;6245478;23;20001;-79
2022/05/23 02:52:39;;;;;;;13.18;9.50;;;24.60;84.60;;;;;;6246051;23;20044;-80
2022/05/23 02:55:06;;;;;;;11.00;9.65;;;24.60;85.30;;;;;;6245124;23;20036;-79
2022/05/23 02:57:32;;;;;;;9.52;8.63;;;24.60;84.70;;;;;;6245584;23;20007;-80
2022/05/23 02:59:57;;;;;;;9.60;8.60;;;24.60;85.20;;;;;;6245758;23;20004;-80
2022/05/23 03:05:08;;;;;;;10.05;8.65;;;24.50;84.80;;;;;;6247014;23;20064;-81
2022/05/23 03:07:34;;;;;;;12.60;9.25;;;24.50;85.50;;;;;;6248294;23;20446;-81
2022/05/23 03:10:00;;;;;;;16.58;14.88;;;24.50;84.90;;;;;;6248048;23;19996;-81
2022/05/23 03:12:27;;;;;;;10.15;9.25;;;24.40;86.00;;;;;;6248620;23;20473;-81
2022/05/23 03:14:53;;;;;;;13.18;9.07;;;24.30;86.30;;;;;;6248021;23;20312;-81
2022/05/23 03:17:19;;;;;;;20.23;18.02;;;24.30;85.90;;;;;;6246221;23;20007;-78
2022/05/23 03:19:45;;;;;;;10.95;9.95;;;24.30;86.80;;;;;;6245378;23;20004;-76
2022/05/23 03:27:41;;;;;;;12.27;11.00;;;24.30;86.00;;;;;;6246752;23;20051;-76
2022/05/23 03:30:07;;;;;;;12.27;11.02;;;24.40;85.90;;;;;;6245039;23;20395;-75
2022/05/23 03:32:34;;;;;;;12.07;10.52;;;24.40;85.90;;;;;;6246350;23;20028;-76
2022/05/23 03:35:00;;;;;;;20.10;18.02;;;24.40;86.00;;;;;;6244850;23;20458;-76
2022/05/23 03:37:26;;;;;;;14.32;11.60;;;24.30;86.50;;;;;;6246231;23;20008;-75
2022/05/23 03:39:51;;;;;;;13.32;11.45;;;24.30;85.90;;;;;;6246145;23;20071;-75
2022/05/23 03:42:17;;;;;;;16.48;14.77;;;24.40;86.00;;;;;;6245555;23;20107;-77
2022/05/23 03:44:43;;;;;;;12.65;10.05;;;24.40;86.40;;;;;;6245624;23;20027;-78
2022/05/23 03:47:10;;;;;;;14.65;12.05;;;24.30;86.00;;;;;;6246112;23;20027;-79
2022/05/23 03:49:35;;;;;;;11.98;10.77;;;24.30;86.10;;;;;;6246738;23;20010;-80
2022/05/23 03:52:01;;;;;;;12.27;10.35;;;24.30;85.80;;;;;;6246474;23;20079;-80
2022/05/23 03:54:27;;;;;;;15.15;13.55;;;24.30;85.70;;;;;;6220197;23;20011;-80
2022/05/23 03:57:01;;;;;;;13.18;11.18;;;24.30;85.90;;;;;;6220618;23;20487;-80
2022/05/23 03:59:28;;;;;;;12.10;10.65;;;24.30;85.50;;;;;;6247756;23;20027;-80
2022/05/23 04:01:56;;;;;;;12.38;8.43;;;24.30;85.60;;;;;;6220620;23;20008;-82
2022/05/23 04:04:27;;;;;;;11.25;9.23;;;24.30;85.40;;;;;;6247970;23;20066;-81
2022/05/23 04:06:58;;;;;;;11.75;8.77;;;24.30;85.20;;;;;;6218486;23;20000;-79
2022/05/23 04:09:23;;;;;;;11.57;7.80;;;24.30;85.10;;;;;;6218333;23;20010;-80
2022/05/23 04:11:49;;;;;;;17.00;13.15;;;24.40;85.00;;;;;;6246563;23;20103;-80
2022/05/23 04:14:15;;;;;;;10.55;9.43;;;24.40;84.80;;;;;;6245667;23;20011;-80
2022/05/23 04:16:45;;;;;;;13.07;11.68;;;24.40;84.50;;;;;;6245390;23;20008;-80
2022/05/23 04:19:11;;;;;;;14.38;12.80;;;24.30;84.30;;;;;;6246590;23;20007;-80
2022/05/23 04:21:41;;;;;;;8.45;7.43;;;24.20;84.30;;;;;;6218492;23;20362;-79
2022/05/23 04:24:07;;;;;;;8.50;7.70;;;24.20;84.50;;;;;;6219062;23;20062;-79
2022/05/23 04:26:33;;;;;;;9.63;7.32;;;24.20;84.30;;;;;;6244893;22;20020;-79
2022/05/23 04:28:58;;;;;;;7.30;6.60;;;24.30;84.20;;;;;;6246423;23;20000;-79
2022/05/23 04:31:24;;;;;;;9.90;7.97;;;24.30;84.00;;;;;;6245983;23;20004;-78
2022/05/23 04:36:34;;;;;;;8.43;7.53;;;24.20;84.10;;;;;;6245247;23;20015;-79
2022/05/23 04:39:00;;;;;;;11.93;9.00;;;24.20;83.80;;;;;;6246113;23;20319;-80
2022/05/23 04:41:26;;;;;;;7.18;6.47;;;24.20;83.90;;;;;;6246026;23;20008;-79
2022/05/23 04:43:51;;;;;;;6.82;6.13;;;24.20;83.80;;;;;;6218582;23;20004;-79
2022/05/23 04:46:17;;;;;;;7.30;6.40;;;24.20;83.70;;;;;;6245356;23;19996;-78
2022/05/23 04:51:27;;;;;;;6.95;6.07;;;24.20;83.40;;;;;;6244132;23;20057;-79
2022/05/23 04:53:53;;;;;;;7.25;6.05;;;24.30;83.30;;;;;;6245044;23;20079;-79
2022/05/23 04:56:24;;;;;;;6.72;6.13;;;24.20;83.30;;;;;;6245472;23;20418;-77
2022/05/23 04:58:50;;;;;;;8.23;6.75;;;24.30;83.20;;;;;;6245996;23;20434;-77
2022/05/23 05:01:16;;;;;;;9.10;7.45;;;24.30;83.30;;;;;;6217249;23;20462;-76
2022/05/23 05:03:42;;;;;;;7.28;6.22;;;24.30;83.20;;;;;;6243978;23;20005;-80
2022/05/23 05:06:08;;;;;;;6.55;5.82;;;24.40;82.90;;;;;;6244468;23;20354;-75
2022/05/23 05:08:34;;;;;;;9.88;8.10;;;24.40;82.80;;;;;;6217595;23;20011;-76
2022/05/23 05:11:03;;;;;;;6.88;5.63;;;24.40;83.00;;;;;;6244846;23;20127;-76
2022/05/23 05:13:32;;;;;;;9.33;6.63;;;24.40;82.70;;;;;;6242234;23;20004;-76
2022/05/23 05:15:59;;;;;;;11.15;7.20;;;24.40;83.10;;;;;;6244391;23;20006;-76
2022/05/23 05:18:25;;;;;;;6.43;5.00;;;24.40;83.20;;;;;;6244417;23;20011;-76
2022/05/23 05:20:52;;;;;;;6.07;5.45;;;24.40;83.10;;;;;;6242175;23;20004;-76
2022/05/23 05:23:22;;;;;;;6.97;6.10;;;24.40;83.40;;;;;;6244033;23;20000;-75
2022/05/23 05:25:52;;;;;;;6.60;5.35;;;24.40;83.30;;;;;;6227787;23;20111;-75
2022/05/23 05:28:17;;;;;;;5.75;4.68;;;24.50;83.20;;;;;;6244011;22;20004;-75
2022/05/23 05:31:00;;;;;;;9.88;7.43;;;24.60;83.20;;;;;;6244255;22;20492;-75
2022/05/23 05:33:32;;;;;;;7.05;6.00;;;24.60;83.20;;;;;;6243561;22;20039;-77
2022/05/23 05:36:04;;;;;;;15.88;5.65;;;24.70;83.50;;;;;;6244196;22;20000;-78
2022/05/23 05:38:32;;;;;;;5.78;5.13;;;24.70;83.20;;;;;;6244627;22;20439;-77
2022/05/23 05:41:05;;;;;;;7.05;5.05;;;24.70;83.20;;;;;;6244969;22;20028;-76
2022/05/23 05:43:36;;;;;;;8.07;5.40;;;24.80;83.20;;;;;;6245017;22;20000;-77
2022/05/23 05:46:10;;;;;;;7.22;5.03;;;24.80;82.90;;;;;;6244737;22;19997;-77
2022/05/23 05:48:40;;;;;;;8.70;5.00;;;24.80;83.00;;;;;;6245793;22;20111;-77
2022/05/23 05:51:07;;;;;;;;;;;24.80;82.90;;;;;;6246186;22;20095;-80
2022/05/23 05:53:33;;;;;;;6.63;5.15;;;24.80;83.10;;;;;;6245505;22;19907;-80
2022/05/23 05:56:02;;;;;;;6.38;4.32;;;24.80;83.10;;;;;;6243901;22;20531;-78
2022/05/23 05:58:29;;;;;;;5.38;4.50;;;24.80;82.90;;;;;;6244910;22;20011;-76
2022/05/23 06:00:56;;;;;;;5.90;4.70;;;24.90;82.80;;;;;;6241989;23;20028;-77
2022/05/23 06:03:21;;;;;;;6.28;4.32;;;24.90;82.40;;;;;;6244265;22;20004;-76
2022/05/23 06:11:32;;;;;;;7.50;5.45;;;25.00;82.50;;;;;;6244685;23;20487;-77
2022/05/23 06:14:00;;;;;;;5.68;4.57;;;25.10;82.50;;;;;;6242679;23;20014;-77
2022/05/23 06:16:28;;;;;;;5.50;4.68;;;25.10;82.40;;;;;;6244554;22;20438;-77
2022/05/23 06:18:54;;;;;;;9.43;7.60;;;25.10;82.60;;;;;;6243383;22;20474;-76
2022/05/23 06:21:21;;;;;;;9.60;7.97;;;25.10;82.40;;;;;;6244414;22;20020;-76
2022/05/23 06:23:47;;;;;;;5.43;4.88;;;25.10;82.30;;;;;;6245056;22;20011;-77
2022/05/23 06:26:14;;;;;;;10.52;4.97;;;25.10;82.10;;;;;;6244977;22;20012;-77
2022/05/23 06:28:40;;;;;;;5.65;4.35;;;25.10;82.20;;;;;;6245110;23;20007;-77
2022/05/23 06:31:06;;;;;;;11.13;5.60;;;25.20;82.20;;;;;;6245100;23;20008;-77
2022/05/23 06:33:32;;;;;;;6.07;4.55;;;25.20;82.30;;;;;;6217981;23;20339;-77
2022/05/23 06:35:58;;;;;;;5.32;4.70;;;25.20;82.10;;;;;;6238573;23;20008;-78
2022/05/23 06:38:25;;;;;;;9.45;4.78;;;25.30;82.00;;;;;;6244408;23;20343;-78
2022/05/23 06:40:51;;;;;;;7.57;6.00;;;25.20;81.90;;;;;;6219292;23;20015;-77
2022/05/23 06:43:17;;;;;;;4.72;4.22;;;25.20;82.00;;;;;;6246245;23;20004;-78
2022/05/23 06:45:45;;;;;;;5.50;4.80;;;25.30;81.90;;;;;;6245991;23;20000;-78
2022/05/23 06:48:10;;;;;;;5.80;4.57;;;25.30;82.00;;;;;;6218402;23;20028;-79
2022/05/23 06:50:36;;;;;;;6.47;5.57;;;25.30;82.40;;;;;;6246663;23;20000;-77
2022/05/23 06:53:02;;;;;;;4.82;3.83;;;25.40;81.60;;;;;;6246413;23;20039;-78
2022/05/23 06:55:27;;;;;;;6.18;4.18;;;25.40;81.60;;;;;;6220225;23;20004;-78
2022/05/23 06:57:53;;;;;;;5.72;4.15;;;25.40;81.40;;;;;;6246331;23;20365;-78
2022/05/23 07:00:19;;;;;;;5.97;3.88;;;25.40;81.00;;;;;;6247064;23;20004;-77
2022/05/23 07:02:46;;;;;;;4.53;3.80;;;25.50;80.70;;;;;;6219070;23;20004;-75
2022/05/23 07:13:25;;;;;;;15.30;6.10;;;25.60;80.60;;;;;;6245091;23;20022;-75
2022/05/23 07:15:52;;;;;;;6.00;4.78;;;25.60;79.10;;;;;;6246698;23;20035;-75
2022/05/23 07:18:19;;;;;;;5.90;3.95;;;25.60;79.00;;;;;;6246619;23;20014;-76
2022/05/23 07:20:45;;;;;;;4.65;3.75;;;25.60;78.80;;;;;;6246621;23;20004;-76
2022/05/23 07:23:13;;;;;;;4.78;3.15;;;25.60;78.30;;;;;;6246260;23;20007;-76
2022/05/23 07:25:40;;;;;;;4.43;3.83;;;25.60;78.50;;;;;;6246726;22;20012;-79
2022/05/23 07:28:06;;;;;;;4.57;3.55;;;25.70;78.00;;;;;;6246588;23;20457;-78
2022/05/23 07:30:32;;;;;;;7.32;3.55;;;25.70;78.10;;;;;;6246836;23;20000;-79
2022/05/23 07:32:58;;;;;;;6.85;4.25;;;25.80;77.80;;;;;;6246702;23;20079;-78
2022/05/23 07:35:25;;;;;;;5.25;3.78;;;25.80;77.30;;;;;;6246613;23;20054;-78
2022/05/23 07:37:51;;;;;;;6.80;4.50;;;25.90;77.60;;;;;;6246306;23;20324;-79
2022/05/23 07:40:17;;;;;;;3.67;3.38;;;25.90;77.20;;;;;;6246357;23;20430;-76
2022/05/23 07:42:43;;;;;;;6.25;4.90;;;25.90;77.50;;;;;;6246402;23;20032;-76
2022/05/23 07:45:11;;;;;;;4.93;4.05;;;25.90;77.00;;;;;;6246070;23;20000;-76
2022/05/23 07:47:37;;;;;;;4.75;3.45;;;25.90;77.00;;;;;;6246346;23;20000;-76
2022/05/23 07:50:09;;;;;;;5.90;3.95;;;25.90;77.10;;;;;;6246580;23;20012;-76
2022/05/23 07:52:35;;;;;;;4.90;3.72;;;25.90;76.70;;;;;;6218940;23;20031;-76
2022/05/23 08:00:31;;;;;;;5.25;3.92;;;26.20;76.70;;;;;;6246794;23;20019;-76
2022/05/23 08:03:05;;;;;;;3.55;3.20;;;26.30;76.50;;;;;;6219117;23;20334;-78
2022/05/23 08:05:31;;;;;;;3.28;2.88;;;26.40;76.50;;;;;;6245864;23;20003;-77
2022/05/23 08:07:58;;;;;;;4.30;3.30;;;26.50;76.40;;;;;;6246150;23;19996;-77
2022/05/23 08:10:25;;;;;;;9.85;3.30;;;26.60;76.30;;;;;;6219223;23;20327;-77
2022/05/23 08:12:54;;;;;;;4.88;3.40;;;26.60;75.70;;;;;;6246282;23;20007;-77
2022/05/23 08:15:22;;;;;;;4.43;2.97;;;26.60;75.60;;;;;;6219382;23;20015;-77
2022/05/23 08:17:49;;;;;;;4.80;3.40;;;26.60;75.60;;;;;;6219257;23;20034;-77
2022/05/23 08:20:15;;;;;;;3.42;2.83;;;26.60;75.60;;;;;;6219313;23;20036;-77
2022/05/23 08:22:41;;;;;;;3.83;3.42;;;26.70;75.70;;;;;;6246006;23;20004;-77
2022/05/23 08:25:08;;;;;;;5.32;3.80;;;26.70;75.70;;;;;;6239797;22;20469;-78
2022/05/23 08:30:27;;;;;;;4.95;3.08;;;26.60;74.90;;;;;;6230324;22;20389;-86
2022/05/23 08:32:53;;;;;;;5.38;4.20;;;26.70;75.30;;;;;;6231667;23;20007;-80
2022/05/23 08:35:21;;;;;;;9.55;5.78;;;26.80;75.00;;;;;;6245135;23;20004;-77
2022/05/23 08:37:47;;;;;;;6.93;3.90;;;26.80;74.20;;;;;;6244449;23;20054;-78
2022/05/23 08:40:13;;;;;;;4.10;3.70;;;26.80;75.00;;;;;;6244181;23;20007;-78
2022/05/23 08:42:58;;;;;;;3.80;3.40;;;26.90;74.90;;;;;;6245078;23;20000;-87
2022/05/23 08:45:37;;;;;;;5.00;4.10;;;26.90;74.50;;;;;;6245883;23;19996;-87
2022/05/23 08:48:28;;;;;;;4.97;4.00;;;27.00;74.30;;;;;;6245442;23;20107;-89
2022/05/23 08:51:11;;;;;;;5.35;3.60;;;27.00;74.10;;;;;;6247044;23;20027;-89
2022/05/23 09:00:23;;;;;;;4.55;3.22;;;26.90;74.50;;;;;;6213843;22;20025;-92
2022/05/23 09:03:20;;;;;;;5.60;4.20;;;27.00;74.70;;;;;;6197902;23;20009;-90
2022/05/23 09:06:15;;;;;;;6.50;4.20;;;27.00;74.40;;;;;;6212359;23;19996;-90
2022/05/23 09:08:54;;;;;;;5.70;4.53;;;27.10;74.70;;;;;;6209226;23;20071;-88
2022/05/23 09:11:28;;;;;;;5.45;4.13;;;27.20;74.90;;;;;;6214592;23;20047;-86
2022/05/23 09:13:55;;;;;;;4.60;4.20;;;27.30;75.00;;;;;;6214327;23;20338;-87
2022/05/23 09:16:24;;;;;;;5.82;4.00;;;27.40;74.60;;;;;;6215021;23;20027;-88
2022/05/23 09:19:06;;;;;;;5.10;4.03;;;27.50;74.60;;;;;;6188928;23;20005;-89
2022/05/23 09:24:23;;;;;;;6.35;4.35;;;27.60;72.80;;;;;;6215084;23;20070;-88
2022/05/23 09:26:51;;;;;;;5.38;3.92;;;27.60;73.50;;;;;;6215225;23;20028;-88
2022/05/23 09:29:16;;;;;;;4.97;4.30;;;27.60;73.20;;;;;;6216262;23;19997;-88
2022/05/23 09:31:54;;;;;;;5.88;3.70;;;27.70;73.20;;;;;;6188660;23;20011;-87
2022/05/23 09:34:30;;;;;;;7.97;5.10;;;27.70;73.20;;;;;;6213374;23;20019;-88
2022/05/23 09:36:58;;;;;;;5.35;3.72;;;27.60;72.30;;;;;;6214597;23;20461;-87
2022/05/23 09:39:25;;;;;;;5.15;3.90;;;27.70;72.60;;;;;;6186847;23;20028;-78
2022/05/23 09:47:46;;;;;;;6.30;4.70;;;27.90;72.30;;;;;;6223456;23;19907;-89
2022/05/23 09:50:27;;;;;;;9.13;5.00;;;27.90;72.10;;;;;;6189227;23;20008;-89
2022/05/23 09:52:57;;;;;;;8.48;4.22;;;28.00;71.50;;;;;;6215622;23;20008;-87
2022/05/23 09:55:28;;;;;;;6.22;3.97;;;28.10;72.50;;;;;;6217154;23;20084;-88
2022/05/23 09:57:57;;;;;;;6.85;4.18;;;28.20;72.60;;;;;;6191775;23;20423;-89
2022/05/23 10:00:23;;;;;;;6.38;4.65;;;28.30;72.00;;;;;;6205571;23;20334;-81
2022/05/23 10:03:22;;;;;;;6.28;4.28;;;28.40;69.70;;;;;;6213053;23;20036;-81
2022/05/23 10:06:02;;;;;;;5.18;3.80;;;28.50;70.20;;;;;;6211280;23;20011;-81
2022/05/23 10:08:28;;;;;;;4.80;4.30;;;28.50;70.60;;;;;;6214685;23;19997;-82
2022/05/23 10:10:59;;;;;;;5.70;4.57;;;28.60;70.60;;;;;;6214005;23;20000;-81
2022/05/23 10:13:33;;;;;;;4.50;3.83;;;28.70;70.70;;;;;;6212645;23;20013;-81
2022/05/23 10:16:48;;;;;;;4.75;4.10;;;28.80;70.80;;;;;;6215781;23;20098;-81
2022/05/23 10:19:35;;;;;;;6.35;3.92;;;28.90;70.30;;;;;;6195049;23;20059;-79
2022/05/23 10:22:06;;;;;;;7.32;4.43;;;29.00;69.90;;;;;;6215915;23;20012;-80
2022/05/23 10:24:34;;;;;;;7.25;4.68;;;29.10;69.80;;;;;;6215660;23;20000;-79
2022/05/23 10:27:06;;;;;;;4.43;4.00;;;29.20;69.80;;;;;;6215948;23;20001;-80
2022/05/23 10:29:44;;;;;;;4.95;3.92;;;29.10;69.80;;;;;;6216234;23;20047;-89
2022/05/23 10:32:14;;;;;;;4.95;3.83;;;29.20;69.80;;;;;;6216585;23;20047;-84
2022/05/23 10:34:41;;;;;;;;;;;29.20;69.40;;;;;;6217800;23;20005;-86
2022/05/23 10:37:14;;;;;;;5.13;4.40;;;29.10;67.60;;;;;;6217990;23;19903;-86
2022/05/23 10:42:46;;;;;;;5.88;3.53;;;29.20;68.60;;;;;;6215765;23;20016;-85
2022/05/23 10:45:33;;;;;;;3.97;3.55;;;29.20;68.30;;;;;;6214650;23;20076;-85
2022/05/23 10:48:21;;;;;;;6.07;4.05;;;29.30;68.20;;;;;;6216001;23;20003;-86
2022/05/23 10:51:21;;;;;;;5.63;3.63;;;29.40;66.90;;;;;;6214990;23;20645;-84
2022/05/23 10:54:14;;;;;;;5.50;3.60;;;29.40;65.20;;;;;;6186646;23;20012;-85
2022/05/23 10:57:13;;;;;;;3.38;3.08;;;29.40;66.50;;;;;;6216884;23;20072;-86
2022/05/23 10:59:54;;;;;;;4.00;3.13;;;29.50;66.50;;;;;;6215298;23;20047;-85
2022/05/23 11:02:51;;;;;;;5.00;3.58;;;29.40;67.00;;;;;;6214302;23;20008;-84
2022/05/23 11:05:44;;;;;;;6.13;3.85;;;29.40;66.00;;;;;;6166822;23;20024;-84
2022/05/23 11:08:16;;;;;;;4.13;3.35;;;29.40;66.50;;;;;;6214767;23;20053;-81
2022/05/23 11:11:03;;;;;;;5.68;2.95;;;29.40;66.80;;;;;;6212141;23;20426;-84
2022/05/23 11:13:34;;;;;;;5.40;3.30;;;29.40;66.60;;;;;;6188283;23;20015;-86
2022/05/23 11:16:32;;;;;;;3.30;3.00;;;29.40;66.40;;;;;;6213863;23;20075;-84
2022/05/23 11:19:06;;;;;;;3.95;3.58;;;29.50;66.10;;;;;;6213619;23;20095;-86
2022/05/23 11:21:36;;;;;;;4.55;3.53;;;29.50;65.80;;;;;;6214030;23;20001;-83
2022/05/23 11:24:13;;;;;;;;;;;29.50;65.80;;;;;;6187083;23;20015;-85
2022/05/23 11:33:41;;;;;;;4.60;3.40;;;29.60;65.70;;;;;;6214937;23;20313;-84
2022/05/23 11:35:28;;;;;;;3.97;2.85;;;30.20;64.80;;;;;;6215269;23;20398;-83
2022/05/23 11:37:54;;;;;;;3.60;3.05;;;30.20;64.20;;;;;;6214283;23;20011;-82
2022/05/23 11:40:26;;;;;;;3.35;3.05;;;30.20;64.30;;;;;;6214912;23;20001;-82
2022/05/23 11:42:58;;;;;;;4.65;3.40;;;30.10;63.90;;;;;;6215056;23;20335;-83
2022/05/23 11:48:43;;;;;;;4.95;3.55;;;30.10;64.60;;;;;;6213262;23;20131;-81
2022/05/23 11:51:24;;;;;;;5.68;3.70;;;30.20;64.20;;;;;;6213110;23;19997;-82
2022/05/23 11:53:56;;;;;;;7.55;4.00;;;30.30;63.90;;;;;;6186081;23;20342;-83
2022/05/23 11:57:00;;;;;;;5.50;4.05;;;30.20;64.10;;;;;;6213162;23;20005;-86
2022/05/23 11:59:26;;;;;;;3.70;3.08;;;30.20;63.00;;;;;;6177621;23;20039;-86
2022/05/23 12:02:14;;;;;;;6.10;3.67;;;30.30;63.50;;;;;;6213664;23;20008;-85
2022/05/23 12:04:49;;;;;;;4.72;3.50;;;30.50;63.50;;;;;;6174479;23;20004;-86
2022/05/23 12:07:41;;;;;;;4.20;3.38;;;30.70;63.30;;;;;;6214018;23;20416;-85
2022/05/23 12:10:22;;;;;;;5.43;3.15;;;30.90;63.20;;;;;;6213585;23;20000;-86
2022/05/23 12:12:50;;;;;;;4.68;3.30;;;31.00;62.50;;;;;;6189852;23;20063;-91
2022/05/23 12:15:44;;;;;;;5.43;3.40;;;31.10;62.50;;;;;;6217971;23;20331;-89
2022/05/23 12:18:21;;;;;;;4.32;3.50;;;31.20;61.40;;;;;;6214856;23;20423;-89
2022/05/23 12:20:53;;;;;;;3.00;2.75;;;31.20;62.10;;;;;;6217328;23;20008;-91
2022/05/23 12:23:37;;;;;;;3.22;2.92;;;31.40;61.80;;;;;;6217046;23;20060;-89
2022/05/23 12:26:09;;;;;;;8.38;3.15;;;31.60;61.00;;;;;;6217687;23;20060;-91
2022/05/23 12:28:45;;;;;;;4.93;3.17;;;31.70;58.90;;;;;;6188748;23;20000;-86
2022/05/23 12:31:19;;;;;;;5.95;3.45;;;31.90;59.10;;;;;;6213857;23;20024;-80
2022/05/23 12:34:07;;;;;;;5.63;3.08;;;32.20;58.60;;;;;;6213786;23;20039;-85
2022/05/23 12:36:53;;;;;;;3.67;2.90;;;32.50;56.70;;;;;;6215239;23;20067;-84
2022/05/23 12:39:44;;;;;;;5.18;2.70;;;32.30;55.10;;;;;;6188256;23;20004;-86
2022/05/23 12:42:47;;;;;;;4.95;3.13;;;32.50;55.50;;;;;;6216683;23;20077;-79
2022/05/23 12:45:28;;;;;;;5.78;3.25;;;32.50;53.70;;;;;;6162358;23;20000;-89
2022/05/23 12:47:56;;;;;;;5.82;3.55;;;32.60;53.40;;;;;;6214436;23;20007;-89
2022/05/23 12:50:37;;;;;;;2.85;2.50;;;32.70;54.60;;;;;;6188161;23;20011;-89
2022/05/23 12:53:39;;;;;;;2.65;2.45;;;32.80;53.40;;;;;;6214795;23;20070;-89
2022/05/23 12:56:17;;;;;;;4.43;2.83;;;33.00;51.30;;;;;;6190003;23;20426;-88
2022/05/23 12:59:10;;;;;;;6.80;3.00;;;33.20;50.70;;;;;;6215172;23;20008;-88
2022/05/23 13:01:40;;;;;;;3.83;2.78;;;33.30;50.80;;;;;;6214482;23;20005;-89
2022/05/23 13:04:20;;;;;;;5.47;2.97;;;33.40;52.30;;;;;;6214380;23;20007;-87
2022/05/23 13:07:17;;;;;;;3.97;2.60;;;33.40;49.60;;;;;;6186420;23;20011;-88
2022/05/23 13:10:28;;;;;;;4.65;3.22;;;33.30;50.30;;;;;;6213759;23;20065;-88
2022/05/23 13:13:12;;;;;;;5.15;3.08;;;33.20;50.10;;;;;;6188322;23;20008;-87
2022/05/23 13:15:39;;;;;;;8.82;3.00;;;33.20;51.00;;;;;;6214171;23;20012;-87
2022/05/23 13:23:38;;;;;;;4.50;2.67;;;33.40;49.20;;;;;;6215071;23;20020;-88
2022/05/23 13:26:08;;;;;;;4.60;2.67;;;33.30;50.30;;;;;;6215902;23;20001;-89
2022/05/23 13:28:43;;;;;;;2.60;2.13;;;33.30;50.90;;;;;;6214299;23;20028;-88
2022/05/23 13:31:31;;;;;;;4.22;2.58;;;33.40;51.70;;;;;;6215595;23;20084;-89
2022/05/23 13:33:58;;;;;;;5.95;2.58;;;33.20;52.20;;;;;;6189436;23;20005;-90
2022/05/23 13:36:25;;;;;;;4.05;3.03;;;33.20;53.00;;;;;;6214975;23;20058;-89
2022/05/23 13:39:04;;;;;;;4.88;2.70;;;33.20;53.50;;;;;;6213776;23;20004;-84
2022/05/23 13:41:31;;;;;;;4.97;2.90;;;33.10;53.40;;;;;;6214550;23;20001;-84
2022/05/23 13:43:58;;;;;;;6.55;3.03;;;33.00;54.40;;;;;;6213930;23;20009;-85
2022/05/23 13:46:37;;;;;;;5.97;3.20;;;32.90;54.00;;;;;;6187684;23;20008;-86
2022/05/23 13:49:09;;;;;;;5.97;2.83;;;32.90;54.50;;;;;;6214698;23;20008;-87
2022/05/23 13:51:44;;;;;;;5.53;2.92;;;32.80;53.60;;;;;;6198022;23;20245;-87
2022/05/23 13:54:52;;;;;;;5.57;2.88;;;32.80;53.70;;;;;;6194689;23;20012;-88
2022/05/23 13:57:28;;;;;;;4.63;2.60;;;32.80;54.40;;;;;;6177291;23;20043;-88
2022/05/23 14:00:02;;;;;;;3.28;2.95;;;32.60;54.60;;;;;;6221118;23;20016;-88
2022/05/23 14:02:39;;;;;;;5.30;3.10;;;32.40;54.60;;;;;;6222718;23;20029;-88
2022/05/23 14:05:05;;;;;;;5.25;2.70;;;32.20;55.20;;;;;;6198345;23;20001;-89
2022/05/23 14:07:36;;;;;;;4.43;2.90;;;32.10;55.80;;;;;;6222084;23;20066;-87
2022/05/23 14:10:03;;;;;;;4.40;2.53;;;31.90;56.50;;;;;;6191515;23;20001;-90
2022/05/23 14:12:34;;;;;;;4.30;2.30;;;31.90;56.00;;;;;;6218182;23;20008;-90
2022/05/23 14:15:10;;;;;;;4.30;2.17;;;31.80;55.00;;;;;;6218150;23;20075;-90
2022/05/23 14:17:44;;;;;;;4.25;2.47;;;31.80;55.30;;;;;;6218422;23;20083;-90
2022/05/23 14:20:45;;;;;;;5.03;2.92;;;31.80;56.00;;;;;;6190260;23;20012;-91
2022/05/23 14:23:11;;;;;;;4.40;2.88;;;31.80;56.50;;;;;;6217776;23;20001;-90
2022/05/23 14:25:54;;;;;;;3.55;2.42;;;31.70;56.60;;;;;;6218606;23;20001;-83